Chrysanthemum — C6XO4 — position and weather

sailwx.info

Track history (hours):
 
Tides and Currents Weather Stations Pressure Air Temp Water Temp Dewpoint Dewpoint Depression Visibility Wind Speed Wind Dir Waves Ship Positions

Chrysanthemum

Last reported at 2017-Jul-29 09:10 UTC. Time now 2017-Aug-17 19:32 UTC.
Position N 01°18' E 103°20'.
Warning: this ship's position is 19 days out of date.

Length 244 m; draft 8.4 m.

Type: Ship. MMSI: 311015300.

Date/timePositionNaut miles runAvg speedWind from/ knotsBaromVisibWave heightAir tempDewpointWater temp
2017-Jul-29 09:10N 01°18' E 103°20'212.9
2017-Jul-29 09:00N 01°17' E 103°22'612.0
2017-Jul-29 08:30N 01°14' E 103°27'612.3
2017-Jul-29 07:59N 01°12' E 103°33'511.1
2017-Jul-29 07:30N 01°11' E 103°38'611.5
2017-Jul-29 06:59N 01°09' E 103°44'510.9
2017-Jul-29 06:30N 01°11' E 103°48'611.5
2017-Jul-29 06:00N 01°14' E 103°54'2 3.7
2017-Jul-29 05:24N 01°16' E 103°55'0 0.0
2017-Jul-29 04:57N 01°16' E 103°55'0 0.1
2017-Jul-29 04:06N 01°16' E 103°54'0 0.2
2017-Jul-29 03:48N 01°16' E 103°55'0 0.0
2017-Jul-29 03:18N 01°16' E 103°55'0 0.0
2017-Jul-29 02:57N 01°16' E 103°55'0 0.0
2017-Jul-29 02:18N 01°16' E 103°55'0 0.0
2017-Jul-29 02:00N 01°16' E 103°55'0 0.0
2017-Jul-29 01:30N 01°16' E 103°55'0 0.0
2017-Jul-29 00:57N 01°16' E 103°55'0 0.0
2017-Jul-29 00:24N 01°16' E 103°55'0 0.0
2017-Jul-28 23:36N 01°16' E 103°55'0 0.2
2017-Jul-28 23:15N 01°16' E 103°55'0 0.2
2017-Jul-28 22:57N 01°16' E 103°55'0 0.1
2017-Jul-28 22:27N 01°16' E 103°55'0 0.0
2017-Jul-28 21:54N 01°16' E 103°55'0 0.0
2017-Jul-28 21:15N 01°16' E 103°55'0 0.0
2017-Jul-28 20:51N 01°16' E 103°55'0 0.2
2017-Jul-28 20:27N 01°16' E 103°55'0 0.3
2017-Jul-28 19:51N 01°15' E 103°55'0 0.4
2017-Jul-28 19:24N 01°15' E 103°55'0 0.1
2017-Jul-28 17:42N 01°15' E 103°54'0 0.3
2017-Jul-28 17:30N 01°15' E 103°54'1 2.0
2017-Jul-28 17:00N 01°14' E 103°55'3 5.3
2017-Jul-28 16:30N 01°16' E 103°57'2 3.3
2017-Jul-28 15:59N 01°16' E 103°59'3 6.0
2017-Jul-28 15:30N 01°16' E 104°02'5 8.3
2017-Jul-28 14:54N 01°17' E 104°07'  
2017-Jul-20 20:08N 31°23' E 124°42'1412.2
2017-Jul-20 18:57N 31°37' E 124°43'3012.2
2017-Jul-20 16:30N 32°07' E 124°46'711.9
2017-Jul-20 15:56N 32°13' E 124°47'511.4
2017-Jul-20 15:30N 32°18' E 124°47'711.2
2017-Jul-20 14:51N 32°26' E 124°47'910.8
2017-Jul-20 13:59N 32°35' E 124°47'610.9
2017-Jul-20 13:29N 32°41' E 124°47'611.0
2017-Jul-20 12:58N 32°46' E 124°47'511.1
2017-Jul-20 12:29N 32°52' E 124°48'511.0
2017-Jul-20 12:00N 32°57' E 124°48'510.9
2017-Jul-20 11:30N 33°02' E 124°48'611.2
2017-Jul-20 10:59N 33°08' E 124°48'511.2
2017-Jul-20 10:30N 33°13' E 124°48'611.5
2017-Jul-20 10:00N 33°19' E 124°48'612.0
2017-Jul-20 09:30N 33°25' E 124°48'712.2
2017-Jul-20 08:58N 33°32' E 124°48'  
Track history (hours):
 
Tides and Currents Weather Stations Pressure Air Temp Water Temp Dewpoint Dewpoint Depression Visibility Wind Speed Wind Dir Waves Ship Positions

Chrysanthemum

Last reported at 2017-Jul-29 09:10 UTC. Time now 2017-Aug-17 19:32 UTC.
Position N 01°18' E 103°20'.
Warning: this ship's position is 19 days out of date.

Length 244 m; draft 8.4 m.

Type: Ship. MMSI: 311015300.

Date/timePositionNaut miles runAvg speedWind from/ knotsBaromVisibWave heightAir tempDewpointWater temp
2017-Jul-29 09:10N 01°18' E 103°20'212.9
2017-Jul-29 09:00N 01°17' E 103°22'612.0
2017-Jul-29 08:30N 01°14' E 103°27'612.3
2017-Jul-29 07:59N 01°12' E 103°33'511.1
2017-Jul-29 07:30N 01°11' E 103°38'611.5
2017-Jul-29 06:59N 01°09' E 103°44'510.9
2017-Jul-29 06:30N 01°11' E 103°48'611.5
2017-Jul-29 06:00N 01°14' E 103°54'2 3.7
2017-Jul-29 05:24N 01°16' E 103°55'0 0.0
2017-Jul-29 04:57N 01°16' E 103°55'0 0.1
2017-Jul-29 04:06N 01°16' E 103°54'0 0.2
2017-Jul-29 03:48N 01°16' E 103°55'0 0.0
2017-Jul-29 03:18N 01°16' E 103°55'0 0.0
2017-Jul-29 02:57N 01°16' E 103°55'0 0.0
2017-Jul-29 02:18N 01°16' E 103°55'0 0.0
2017-Jul-29 02:00N 01°16' E 103°55'0 0.0
2017-Jul-29 01:30N 01°16' E 103°55'0 0.0
2017-Jul-29 00:57N 01°16' E 103°55'0 0.0
2017-Jul-29 00:24N 01°16' E 103°55'0 0.0
2017-Jul-28 23:36N 01°16' E 103°55'0 0.2
2017-Jul-28 23:15N 01°16' E 103°55'0 0.2
2017-Jul-28 22:57N 01°16' E 103°55'0 0.1
2017-Jul-28 22:27N 01°16' E 103°55'0 0.0
2017-Jul-28 21:54N 01°16' E 103°55'0 0.0
2017-Jul-28 21:15N 01°16' E 103°55'0 0.0
2017-Jul-28 20:51N 01°16' E 103°55'0 0.2
2017-Jul-28 20:27N 01°16' E 103°55'0 0.3
2017-Jul-28 19:51N 01°15' E 103°55'0 0.4
2017-Jul-28 19:24N 01°15' E 103°55'0 0.1
2017-Jul-28 17:42N 01°15' E 103°54'0 0.3
2017-Jul-28 17:30N 01°15' E 103°54'1 2.0
2017-Jul-28 17:00N 01°14' E 103°55'3 5.3
2017-Jul-28 16:30N 01°16' E 103°57'2 3.3
2017-Jul-28 15:59N 01°16' E 103°59'3 6.0
2017-Jul-28 15:30N 01°16' E 104°02'5 8.3
2017-Jul-28 14:54N 01°17' E 104°07'  
2017-Jul-20 20:08N 31°23' E 124°42'1412.2
2017-Jul-20 18:57N 31°37' E 124°43'3012.2
2017-Jul-20 16:30N 32°07' E 124°46'711.9
2017-Jul-20 15:56N 32°13' E 124°47'511.4
2017-Jul-20 15:30N 32°18' E 124°47'711.2
2017-Jul-20 14:51N 32°26' E 124°47'910.8
2017-Jul-20 13:59N 32°35' E 124°47'610.9
2017-Jul-20 13:29N 32°41' E 124°47'611.0
2017-Jul-20 12:58N 32°46' E 124°47'511.1
2017-Jul-20 12:29N 32°52' E 124°48'511.0
2017-Jul-20 12:00N 32°57' E 124°48'510.9
2017-Jul-20 11:30N 33°02' E 124°48'611.2
2017-Jul-20 10:59N 33°08' E 124°48'511.2
2017-Jul-20 10:30N 33°13' E 124°48'611.5
2017-Jul-20 10:00N 33°19' E 124°48'612.0
2017-Jul-20 09:30N 33°25' E 124°48'712.2
2017-Jul-20 08:58N 33°32' E 124°48'  

Dump ship's entire track history